Time;durP1;ratioP1;P1;durP2;ratioP2;P2;SDS_P1;SDS_P2;PMS_P1;PMS_P2;Temp;Humidity;BMP_temperature;BMP_pressure;BME280_temperature;BME280_humidity;BME280_pressure;Samples;Min_cycle;Max_cycle;Signal;HPM_P1;HPM_P2
2022/09/28 00:01:47;;;;;;;2.35;2.25;;;14.50;95.90;;;;;;5047673;28;20179;-70
2022/09/28 00:04:13;;;;;;;3.25;3.10;;;14.50;95.40;;;;;;5049595;28;20228;-71
2022/09/28 00:06:38;;;;;;;5.60;3.47;;;14.50;95.00;;;;;;5045686;28;20213;-70
2022/09/28 00:09:04;;;;;;;3.75;3.45;;;14.40;94.40;;;;;;5046870;28;20581;-71
2022/09/28 00:11:30;;;;;;;6.72;3.35;;;14.30;94.30;;;;;;5046957;28;20648;-71
2022/09/28 00:14:01;;;;;;;2.92;2.72;;;14.30;95.30;;;;;;5048143;28;20701;-71
2022/09/28 00:16:30;;;;;;;3.08;2.60;;;14.30;94.40;;;;;;5048558;28;20547;-71
2022/09/28 00:18:56;;;;;;;3.53;3.22;;;14.30;94.70;;;;;;5046064;28;20206;-71
2022/09/28 00:21:28;;;;;;;3.47;3.17;;;14.30;94.70;;;;;;5048510;28;20211;-72
2022/09/28 00:24:14;;;;;;;5.95;3.33;;;14.20;94.60;;;;;;5049492;28;20190;-71
2022/09/28 00:26:46;;;;;;;3.42;3.13;;;14.20;95.80;;;;;;5040917;28;20190;-71
2022/09/28 00:29:21;;;;;;;3.58;3.28;;;14.10;94.80;;;;;;5044976;28;21145;-71
2022/09/28 00:31:48;;;;;;;3.50;3.20;;;14.20;94.90;;;;;;5048239;28;20412;-71
2022/09/28 00:34:14;;;;;;;4.53;3.33;;;14.10;94.40;;;;;;5050972;28;20187;-71
2022/09/28 00:36:44;;;;;;;3.10;2.97;;;14.00;95.90;;;;;;5049049;28;20723;-71
2022/09/28 00:39:11;;;;;;;2.95;2.75;;;14.00;95.80;;;;;;5049337;28;20183;-72
2022/09/28 00:41:37;;;;;;;2.38;2.17;;;14.00;96.20;;;;;;5047182;28;20187;-72
2022/09/28 00:44:24;;;;;;;7.80;2.63;;;14.00;95.60;;;;;;5046540;28;20188;-71
2022/09/28 00:46:55;;;;;;;2.00;1.90;;;13.90;95.00;;;;;;5041660;28;20191;-71
2022/09/28 00:49:50;;;;;;;2.67;2.00;;;13.90;94.60;;;;;;5045952;28;20450;-71
2022/09/28 00:52:40;;;;;;;2.28;2.10;;;13.80;94.40;;;;;;5030821;28;20187;-71
2022/09/28 00:55:12;;;;;;;3.00;1.90;;;13.80;95.40;;;;;;5026692;28;20195;-71
2022/09/28 00:57:41;;;;;;;1.80;1.75;;;13.80;95.80;;;;;;5027381;28;20720;-71
2022/09/28 01:00:08;;;;;;;1.90;1.80;;;13.70;95.00;;;;;;5023985;28;20195;-71
2022/09/28 01:02:34;;;;;;;1.83;1.70;;;13.70;95.20;;;;;;5026124;28;20218;-72
2022/09/28 01:05:02;;;;;;;1.50;1.50;;;13.70;95.20;;;;;;5027392;28;20749;-71
2022/09/28 01:07:28;;;;;;;2.42;1.73;;;13.60;94.80;;;;;;5030291;28;20184;-72
2022/09/28 01:09:55;;;;;;;1.92;1.83;;;13.60;94.50;;;;;;5026800;28;20278;-72
2022/09/28 01:12:20;;;;;;;2.55;2.35;;;13.60;95.00;;;;;;5007352;28;20194;-72
2022/09/28 01:14:47;;;;;;;1.98;1.88;;;13.60;94.80;;;;;;5031938;28;20188;-71
2022/09/28 01:17:44;;;;;;;2.60;2.42;;;13.60;94.60;;;;;;5031378;28;20314;-72
2022/09/28 01:20:33;;;;;;;3.25;1.83;;;13.60;94.80;;;;;;4980281;28;20373;-71
2022/09/28 01:23:01;;;;;;;3.15;1.52;;;13.60;94.70;;;;;;4976123;28;20202;-71
2022/09/28 01:25:54;;;;;;;2.17;2.08;;;13.60;95.20;;;;;;4980281;28;20277;-71
2022/09/28 01:28:28;;;;;;;2.08;2.08;;;13.50;94.00;;;;;;4972175;28;20221;-71
2022/09/28 01:31:28;;;;;;;2.90;1.55;;;13.50;94.20;;;;;;5003374;28;20231;-71
2022/09/28 01:33:59;;;;;;;2.00;1.90;;;13.50;93.80;;;;;;4961772;28;20241;-71
2022/09/28 01:36:35;;;;;;;1.95;1.83;;;13.50;94.40;;;;;;4963199;28;20682;-71
2022/09/28 01:39:07;;;;;;;2.40;2.30;;;13.50;94.30;;;;;;4962661;28;20193;-71
2022/09/28 01:41:35;;;;;;;2.20;2.08;;;13.50;95.40;;;;;;4963942;28;21018;-71
2022/09/28 01:44:03;;;;;;;3.33;1.92;;;13.40;95.40;;;;;;4947119;28;20304;-71
2022/09/28 01:46:43;;;;;;;4.88;1.92;;;13.40;95.30;;;;;;4962182;28;20194;-71
2022/09/28 01:49:38;;;;;;;2.83;1.90;;;13.40;95.10;;;;;;4963561;28;20285;-71
2022/09/28 01:52:15;;;;;;;2.47;2.28;;;13.30;95.30;;;;;;4893011;29;20244;-71
2022/09/28 01:54:50;;;;;;;2.35;2.25;;;13.30;94.80;;;;;;4894915;29;20706;-71
2022/09/28 01:57:16;;;;;;;2.58;2.42;;;13.30;95.70;;;;;;4920707;29;20191;-71
2022/09/28 01:59:51;;;;;;;2.63;2.42;;;13.20;96.50;;;;;;4931810;29;20203;-71
2022/09/28 02:02:22;;;;;;;2.83;2.72;;;13.30;96.90;;;;;;4926682;29;20203;-71
2022/09/28 02:04:56;;;;;;;2.47;2.00;;;13.10;97.60;;;;;;4929873;29;20192;-71
2022/09/28 02:07:27;;;;;;;2.13;1.75;;;13.10;96.50;;;;;;4925437;28;20194;-71
2022/09/28 02:09:59;;;;;;;2.03;1.92;;;13.10;96.30;;;;;;4951341;28;20231;-71
2022/09/28 02:12:33;;;;;;;1.92;1.83;;;13.00;96.10;;;;;;4961871;28;20205;-71
2022/09/28 02:15:16;;;;;;;1.95;1.85;;;12.90;96.40;;;;;;4958859;28;20272;-71
2022/09/28 02:17:42;;;;;;;2.55;2.45;;;12.90;95.70;;;;;;4961138;28;20221;-71
2022/09/28 02:20:09;;;;;;;1.92;1.70;;;12.90;95.80;;;;;;4959921;28;20241;-71
2022/09/28 02:22:54;;;;;;;1.70;1.70;;;12.90;95.70;;;;;;4960755;28;20562;-71
2022/09/28 02:25:41;;;;;;;1.70;1.67;;;13.00;96.10;;;;;;4961607;28;20309;-71
2022/09/28 02:28:10;;;;;;;1.73;1.42;;;13.00;95.60;;;;;;4956396;28;20288;-71
2022/09/28 02:30:38;;;;;;;2.15;2.05;;;12.90;95.40;;;;;;5055274;28;20209;-71
2022/09/28 02:33:36;;;;;;;2.55;2.38;;;13.00;95.80;;;;;;5050322;28;20198;-71
2022/09/28 02:36:03;;;;;;;2.75;2.25;;;13.00;96.00;;;;;;5050258;28;20214;-72
2022/09/28 02:38:30;;;;;;;2.47;2.00;;;13.00;95.80;;;;;;5050741;28;20183;-72
2022/09/28 02:41:20;;;;;;;3.80;3.50;;;13.00;95.60;;;;;;5052676;28;20184;-71
2022/09/28 02:44:23;;;;;;;3.13;2.97;;;13.10;96.60;;;;;;5046343;28;20183;-72
2022/09/28 02:46:48;;;;;;;3.25;2.88;;;13.10;96.80;;;;;;5048900;28;20253;-71
2022/09/28 02:49:37;;;;;;;3.70;2.88;;;13.10;97.40;;;;;;5048719;28;20183;-72
2022/09/28 02:52:32;;;;;;;3.20;2.92;;;13.00;96.20;;;;;;5047730;28;20220;-72
2022/09/28 02:55:35;;;;;;;3.78;3.47;;;13.10;97.00;;;;;;5049048;28;20199;-71
2022/09/28 02:58:46;;;;;;;2.92;2.72;;;13.00;96.30;;;;;;5042628;28;20253;-71
2022/09/28 03:01:27;;;;;;;3.45;3.15;;;13.10;97.50;;;;;;5042224;28;20194;-72
2022/09/28 03:04:42;;;;;;;3.33;3.13;;;13.10;98.30;;;;;;5047773;28;20258;-71
2022/09/28 03:07:36;;;;;;;3.88;3.47;;;13.00;96.60;;;;;;4971048;28;20201;-71
2022/09/28 03:10:06;;;;;;;3.45;3.15;;;13.10;97.80;;;;;;4963160;28;20229;-71
2022/09/28 03:12:32;;;;;;;3.55;3.05;;;13.10;97.20;;;;;;4968135;28;20425;-71
2022/09/28 03:15:24;;;;;;;3.28;2.90;;;13.10;96.80;;;;;;4970837;28;20196;-72
2022/09/28 03:17:50;;;;;;;3.22;2.92;;;13.10;96.10;;;;;;4965917;28;20739;-72
2022/09/28 03:20:16;;;;;;;3.30;3.10;;;13.20;98.40;;;;;;4969052;28;20320;-72
2022/09/28 03:22:42;;;;;;;3.35;3.15;;;13.10;97.70;;;;;;4968980;28;20609;-72
2022/09/28 03:25:09;;;;;;;3.03;2.83;;;13.10;97.70;;;;;;4973131;28;20197;-71
2022/09/28 03:27:35;;;;;;;3.13;2.88;;;13.10;98.20;;;;;;4965565;28;20178;-70
2022/09/28 03:30:01;;;;;;;3.03;2.75;;;13.10;97.80;;;;;;4970982;28;20781;-72
2022/09/28 03:32:26;;;;;;;3.20;2.97;;;13.20;98.10;;;;;;4966893;28;20229;-73
2022/09/28 03:34:53;;;;;;;2.92;2.72;;;13.20;97.10;;;;;;4960251;28;20194;-71
2022/09/28 03:37:18;;;;;;;5.10;3.22;;;13.20;97.60;;;;;;4971751;28;20241;-72
2022/09/28 03:39:44;;;;;;;3.97;3.60;;;13.20;97.30;;;;;;4970236;28;21781;-73
2022/09/28 03:42:10;;;;;;;3.42;2.88;;;13.20;98.10;;;;;;4972539;28;20198;-74
2022/09/28 03:44:35;;;;;;;3.17;3.00;;;13.20;98.10;;;;;;5036318;28;20338;-73
2022/09/28 03:47:01;;;;;;;3.03;2.83;;;13.20;97.30;;;;;;5048921;28;20245;-71
2022/09/28 03:49:27;;;;;;;3.45;3.17;;;13.20;97.80;;;;;;5048839;28;20198;-71
2022/09/28 03:51:52;;;;;;;3.55;3.30;;;13.20;97.20;;;;;;5048035;28;20271;-71
2022/09/28 03:54:18;;;;;;;2.65;2.55;;;13.20;96.90;;;;;;5049231;28;20269;-71
2022/09/28 03:56:44;;;;;;;5.00;2.65;;;13.20;96.70;;;;;;5050613;28;20192;-71
2022/09/28 03:59:10;;;;;;;3.33;3.13;;;13.30;96.90;;;;;;5047626;28;20261;-74
2022/09/28 04:01:35;;;;;;;5.53;2.75;;;13.20;97.00;;;;;;5044791;28;20192;-72
2022/09/28 04:04:01;;;;;;;2.97;2.78;;;13.30;97.00;;;;;;5049704;28;20194;-73
2022/09/28 04:06:27;;;;;;;2.80;2.60;;;13.30;97.40;;;;;;5040241;28;20213;-71
2022/09/28 04:08:52;;;;;;;3.50;3.30;;;13.30;97.10;;;;;;5044704;28;20641;-70
2022/09/28 04:11:18;;;;;;;3.17;2.90;;;13.40;97.40;;;;;;5039061;28;20210;-72
2022/09/28 04:13:47;;;;;;;3.15;2.90;;;13.30;97.10;;;;;;5044417;28;20203;-73
2022/09/28 04:16:14;;;;;;;3.22;2.95;;;13.30;96.60;;;;;;5070806;28;20211;-75
2022/09/28 04:18:41;;;;;;;3.38;2.65;;;13.30;96.40;;;;;;5046917;28;20188;-73
2022/09/28 04:21:09;;;;;;;4.57;2.78;;;13.30;96.20;;;;;;5047158;28;20188;-73
2022/09/28 04:23:37;;;;;;;3.08;2.88;;;13.30;96.50;;;;;;5045178;28;20198;-74
2022/09/28 04:26:05;;;;;;;2.97;2.80;;;13.30;96.00;;;;;;5047435;28;20217;-74
2022/09/28 04:31:18;;;;;;;3.08;2.88;;;13.40;96.40;;;;;;5045401;28;20314;-73
2022/09/28 04:33:44;;;;;;;3.60;3.25;;;13.40;96.70;;;;;;5048246;28;20635;-72
2022/09/28 04:36:09;;;;;;;4.22;3.28;;;13.40;96.30;;;;;;5044835;28;20258;-73
2022/09/28 04:38:36;;;;;;;3.80;3.50;;;13.40;96.30;;;;;;5047135;28;20174;-70
2022/09/28 04:41:02;;;;;;;3.22;2.97;;;13.50;97.10;;;;;;5046496;28;20194;-71
2022/09/28 04:43:28;;;;;;;6.15;3.17;;;13.50;97.20;;;;;;5044011;28;20222;-71
2022/09/28 04:46:01;;;;;;;2.92;2.65;;;13.50;96.50;;;;;;5045509;28;20794;-72
2022/09/28 04:48:28;;;;;;;2.92;2.75;;;13.50;96.40;;;;;;5046404;28;20558;-72
2022/09/28 04:50:58;;;;;;;5.45;3.15;;;13.50;96.40;;;;;;5042645;28;20284;-72
2022/09/28 04:53:25;;;;;;;2.85;2.65;;;13.50;96.00;;;;;;5044537;28;20202;-72
2022/09/28 04:56:18;;;;;;;3.28;2.97;;;13.60;96.20;;;;;;5047743;28;20252;-72
2022/09/28 04:58:44;;;;;;;2.92;2.78;;;13.60;95.40;;;;;;5044351;28;20202;-74
2022/09/28 05:01:22;;;;;;;3.30;3.00;;;13.70;97.20;;;;;;5052452;28;20187;-74
2022/09/28 05:03:48;;;;;;;5.70;3.00;;;13.70;95.80;;;;;;5048467;28;20175;-74
2022/09/28 05:06:15;;;;;;;3.90;3.58;;;13.70;96.10;;;;;;5051974;28;20194;-75
2022/09/28 05:08:41;;;;;;;4.20;3.72;;;13.80;97.90;;;;;;5050089;28;20190;-75
2022/09/28 05:11:10;;;;;;;4.00;2.72;;;13.80;96.70;;;;;;5053591;28;20226;-75
2022/09/28 05:13:41;;;;;;;5.30;4.55;;;13.90;97.10;;;;;;5049753;28;20627;-74
2022/09/28 05:16:08;;;;;;;4.93;4.43;;;13.90;97.00;;;;;;5048934;28;20183;-75
2022/09/28 05:18:35;;;;;;;6.30;4.88;;;14.00;97.80;;;;;;5050741;28;20186;-74
2022/09/28 05:21:00;;;;;;;4.47;4.15;;;14.00;97.60;;;;;;5056241;28;20256;-74
2022/09/28 05:23:26;;;;;;;5.93;4.38;;;14.00;97.20;;;;;;5046698;28;20776;-75
2022/09/28 05:25:52;;;;;;;5.10;4.25;;;14.00;97.80;;;;;;5047920;28;20179;-74
2022/09/28 05:28:24;;;;;;;5.32;3.95;;;14.00;97.10;;;;;;5049122;28;20242;-75
2022/09/28 05:30:51;;;;;;;4.20;3.80;;;14.00;96.70;;;;;;5055102;28;20211;-75
2022/09/28 05:33:16;;;;;;;7.93;4.40;;;14.00;96.90;;;;;;5046396;28;20701;-75
2022/09/28 05:35:42;;;;;;;4.03;3.67;;;14.00;96.90;;;;;;5040534;28;20172;-76
2022/09/28 05:38:08;;;;;;;4.22;3.92;;;14.00;97.00;;;;;;5043226;28;20188;-74
2022/09/28 05:40:33;;;;;;;8.82;4.50;;;14.00;96.80;;;;;;5039518;28;20214;-74
2022/09/28 05:43:00;;;;;;;21.25;5.68;;;14.00;96.70;;;;;;5041171;28;20601;-74
2022/09/28 05:45:27;;;;;;;12.02;5.45;;;14.00;96.50;;;;;;5050634;28;20198;-75
2022/09/28 05:47:53;;;;;;;7.90;4.63;;;14.00;96.50;;;;;;5049167;28;20187;-75
2022/09/28 05:50:18;;;;;;;13.93;5.90;;;14.10;96.80;;;;;;5053358;28;20280;-75
2022/09/28 05:52:45;;;;;;;8.25;5.47;;;14.10;97.60;;;;;;5049407;28;20183;-75
2022/09/28 05:55:11;;;;;;;10.63;5.38;;;14.20;97.50;;;;;;5052960;28;20190;-75
2022/09/28 05:57:37;;;;;;;5.40;4.15;;;14.20;96.90;;;;;;5047556;28;20781;-75
2022/09/28 06:00:07;;;;;;;5.30;4.80;;;14.20;96.60;;;;;;5053163;28;20175;-75
2022/09/28 06:02:33;;;;;;;9.93;5.35;;;14.30;96.80;;;;;;5050849;28;20202;-75
2022/09/28 06:04:59;;;;;;;8.00;5.65;;;14.40;97.20;;;;;;5056296;28;20171;-75
2022/09/28 06:07:24;;;;;;;8.43;6.38;;;14.50;98.10;;;;;;5048161;28;20658;-75
2022/09/28 06:09:50;;;;;;;9.00;6.50;;;14.60;98.40;;;;;;5049518;28;20215;-75
2022/09/28 06:12:16;;;;;;;7.53;5.90;;;14.70;97.60;;;;;;5050376;28;20180;-75
2022/09/28 06:14:41;;;;;;;8.20;6.60;;;14.80;97.30;;;;;;5049284;28;20825;-75
2022/09/28 06:17:07;;;;;;;7.88;5.95;;;14.90;97.40;;;;;;5046221;28;20262;-75
2022/09/28 06:19:33;;;;;;;8.75;5.45;;;15.00;97.20;;;;;;5047024;28;20210;-75
2022/09/28 06:21:58;;;;;;;6.97;6.32;;;15.10;97.20;;;;;;5049229;28;20179;-75
2022/09/28 06:24:24;;;;;;;10.95;7.38;;;15.30;97.40;;;;;;5050175;28;20282;-75
2022/09/28 06:26:50;;;;;;;10.65;6.75;;;15.40;97.90;;;;;;5046215;28;20601;-75
2022/09/28 06:29:17;;;;;;;10.00;6.50;;;15.50;97.60;;;;;;5055974;28;20606;-75
2022/09/28 06:31:43;;;;;;;7.50;6.18;;;15.50;97.30;;;;;;5050014;28;20298;-75
2022/09/28 06:34:10;;;;;;;9.57;6.45;;;15.60;97.20;;;;;;5053773;28;20209;-75
2022/09/28 06:36:36;;;;;;;11.60;7.15;;;15.70;97.50;;;;;;5054218;28;20179;-75
2022/09/28 06:39:01;;;;;;;12.70;9.32;;;15.80;97.60;;;;;;5048209;28;20690;-75
2022/09/28 06:41:27;;;;;;;9.60;7.45;;;15.90;97.30;;;;;;5050841;28;20183;-75
2022/09/28 06:43:53;;;;;;;15.02;8.05;;;16.00;97.30;;;;;;5048119;28;20175;-75
2022/09/28 06:46:19;;;;;;;14.40;8.63;;;16.10;97.50;;;;;;5049921;28;20738;-75
2022/09/28 06:48:45;;;;;;;10.52;8.60;;;16.10;97.70;;;;;;5055537;28;20183;-75
2022/09/28 06:51:11;;;;;;;10.35;8.10;;;16.20;97.40;;;;;;5053050;28;20223;-75
2022/09/28 06:53:36;;;;;;;14.65;8.75;;;16.30;97.20;;;;;;5053425;28;20176;-75
2022/09/28 06:56:03;;;;;;;12.48;9.02;;;16.40;97.10;;;;;;5053959;28;20236;-75
2022/09/28 06:58:31;;;;;;;11.05;8.15;;;16.40;96.80;;;;;;5047394;28;20274;-75
2022/09/28 07:00:59;;;;;;;8.95;7.65;;;16.50;96.90;;;;;;5047781;28;20187;-74
2022/09/28 07:03:26;;;;;;;15.45;7.82;;;16.50;96.70;;;;;;5053267;28;20194;-75
2022/09/28 07:05:55;;;;;;;9.43;7.78;;;16.50;96.60;;;;;;5052443;28;20190;-74
2022/09/28 07:08:27;;;;;;;11.80;8.50;;;16.60;96.20;;;;;;5046410;28;20196;-75
2022/09/28 07:10:56;;;;;;;11.23;7.93;;;16.70;96.40;;;;;;5049583;28;20210;-75
2022/09/28 07:13:30;;;;;;;11.32;7.78;;;16.80;96.40;;;;;;5049802;28;20186;-75
2022/09/28 07:16:00;;;;;;;8.77;6.95;;;16.90;96.40;;;;;;5044074;28;20180;-75
2022/09/28 07:18:27;;;;;;;8.77;7.38;;;17.00;96.50;;;;;;5051212;28;20685;-75
2022/09/28 07:20:57;;;;;;;11.27;7.55;;;17.10;96.50;;;;;;5048382;28;20189;-75
2022/09/28 07:23:26;;;;;;;7.70;6.90;;;17.20;95.90;;;;;;5054317;28;21054;-75
2022/09/28 07:25:52;;;;;;;7.75;6.45;;;17.30;95.90;;;;;;5048775;28;20726;-75
2022/09/28 07:28:18;;;;;;;7.22;6.35;;;17.30;96.10;;;;;;5045411;28;20185;-75
2022/09/28 07:30:44;;;;;;;7.15;5.85;;;17.50;96.00;;;;;;5051031;28;20627;-75
2022/09/28 07:33:13;;;;;;;6.50;5.90;;;17.60;95.80;;;;;;5050616;28;20188;-75
2022/09/28 07:35:40;;;;;;;7.57;6.85;;;17.70;95.50;;;;;;5049588;28;20238;-74
2022/09/28 07:38:07;;;;;;;7.82;7.03;;;17.80;95.50;;;;;;5046689;28;20221;-75
2022/09/28 07:43:19;;;;;;;12.65;7.55;;;18.10;94.20;;;;;;5050509;28;21137;-75
2022/09/28 07:45:50;;;;;;;8.40;7.30;;;18.20;93.20;;;;;;5048806;28;20236;-75
2022/09/28 07:48:17;;;;;;;8.10;6.53;;;18.40;93.60;;;;;;5049745;28;20194;-74
2022/09/28 07:50:51;;;;;;;7.40;6.72;;;18.60;92.70;;;;;;5046669;28;20231;-75
2022/09/28 07:53:24;;;;;;;7.72;6.78;;;18.60;91.60;;;;;;5052457;28;20192;-75
2022/09/28 07:55:54;;;;;;;8.82;7.22;;;18.70;91.70;;;;;;5049693;28;20188;-75
2022/09/28 07:58:20;;;;;;;9.27;7.05;;;18.80;90.10;;;;;;5047596;28;20179;-75
2022/09/28 08:00:48;;;;;;;7.82;6.75;;;18.80;89.50;;;;;;5050646;28;20249;-75
2022/09/28 08:03:15;;;;;;;7.30;6.57;;;18.90;90.50;;;;;;5049109;28;20833;-75
2022/09/28 08:05:41;;;;;;;7.68;6.70;;;19.00;90.30;;;;;;5052576;28;20213;-75
2022/09/28 08:08:07;;;;;;;7.35;6.53;;;19.00;89.00;;;;;;5043615;28;20186;-75
2022/09/28 08:10:33;;;;;;;7.85;7.03;;;19.00;90.00;;;;;;5046139;28;20215;-75
2022/09/28 08:13:02;;;;;;;9.73;6.93;;;19.10;89.10;;;;;;5044589;28;20175;-75
2022/09/28 08:15:35;;;;;;;6.30;5.70;;;19.00;89.10;;;;;;5047743;28;20197;-75
2022/09/28 08:18:02;;;;;;;5.93;5.40;;;19.00;89.10;;;;;;5051303;28;20635;-74
2022/09/28 08:23:12;;;;;;;5.65;5.18;;;19.20;89.40;;;;;;5047866;28;20190;-75
2022/09/28 08:25:38;;;;;;;6.13;4.85;;;19.20;88.30;;;;;;5042825;28;20597;-75
2022/09/28 08:28:07;;;;;;;6.88;4.82;;;19.30;87.90;;;;;;5049935;28;20801;-75
2022/09/28 08:30:33;;;;;;;3.55;3.30;;;19.30;88.20;;;;;;5050426;28;20683;-75
2022/09/28 08:32:59;;;;;;;4.00;2.97;;;19.30;87.30;;;;;;5051908;28;20186;-75
2022/09/28 08:35:25;;;;;;;2.67;2.47;;;19.40;87.50;;;;;;5044167;28;20183;-76
2022/09/28 08:37:53;;;;;;;3.58;2.72;;;19.70;87.50;;;;;;5048604;28;20183;-76
2022/09/28 08:40:24;;;;;;;4.72;3.22;;;20.20;87.80;;;;;;5042711;28;20195;-74
2022/09/28 08:42:55;;;;;;;3.78;2.90;;;20.80;88.70;;;;;;5053083;28;20182;-75
2022/09/28 08:45:26;;;;;;;3.15;2.58;;;21.60;85.30;;;;;;5053414;28;20200;-75
2022/09/28 08:50:53;;;;;;;2.53;2.42;;;23.10;82.40;;;;;;5048320;28;20259;-74
2022/09/28 08:53:37;;;;;;;2.20;2.10;;;24.10;81.50;;;;;;5045148;28;20188;-75
2022/09/28 08:56:09;;;;;;;2.40;2.20;;;25.10;79.10;;;;;;5052449;28;20393;-74
2022/09/28 08:58:40;;;;;;;4.55;2.10;;;26.00;76.10;;;;;;5048018;28;20676;-75
2022/09/28 09:01:12;;;;;;;2.05;1.85;;;26.80;72.90;;;;;;5052580;28;20179;-75
2022/09/28 09:03:40;;;;;;;2.38;2.15;;;27.40;73.90;;;;;;5052282;28;20650;-74
2022/09/28 09:06:14;;;;;;;2.38;2.28;;;28.00;72.70;;;;;;5047058;28;20210;-72
2022/09/28 09:08:51;;;;;;;4.25;2.20;;;28.40;72.30;;;;;;5047624;28;20186;-73
2022/09/28 09:11:22;;;;;;;1.63;1.60;;;28.80;70.30;;;;;;5035810;28;20230;-74
2022/09/28 09:14:18;;;;;;;2.22;1.63;;;29.30;70.50;;;;;;5049164;28;20188;-74
2022/09/28 09:17:17;;;;;;;2.13;2.10;;;29.60;68.20;;;;;;5024009;28;20314;-76
2022/09/28 09:19:50;;;;;;;2.70;1.95;;;30.10;66.70;;;;;;5027865;28;21057;-77
2022/09/28 09:22:16;;;;;;;1.67;1.58;;;30.60;67.00;;;;;;5031258;28;20203;-77
2022/09/28 09:24:54;;;;;;;3.90;1.80;;;31.10;65.40;;;;;;5028312;28;20179;-78
2022/09/28 09:27:19;;;;;;;2.00;1.80;;;31.60;65.50;;;;;;5029728;28;20196;-79
2022/09/28 09:29:49;;;;;;;1.75;1.70;;;32.10;64.00;;;;;;5028961;28;20238;-75
2022/09/28 09:32:29;;;;;;;4.38;2.15;;;32.50;63.00;;;;;;5027755;28;20180;-78
2022/09/28 09:35:44;;;;;;;2.67;1.70;;;32.90;60.90;;;;;;5028248;28;20226;-78
2022/09/28 09:38:40;;;;;;;1.60;1.60;;;33.30;61.40;;;;;;5032391;28;20202;-78
2022/09/28 09:41:11;;;;;;;2.55;1.48;;;33.70;60.30;;;;;;5027051;28;20199;-78
2022/09/28 09:43:45;;;;;;;1.60;1.50;;;34.00;60.30;;;;;;5025270;28;20187;-78
2022/09/28 09:46:20;;;;;;;3.08;1.48;;;34.30;61.60;;;;;;5018157;28;20705;-75
2022/09/28 09:48:49;;;;;;;1.33;1.17;;;34.60;59.30;;;;;;5027378;28;20197;-73
2022/09/28 09:51:23;;;;;;;1.52;1.50;;;34.90;59.50;;;;;;5027300;28;20247;-73
2022/09/28 09:53:55;;;;;;;1.55;1.45;;;35.20;57.90;;;;;;5029311;28;20202;-74
2022/09/28 09:56:30;;;;;;;1.60;1.30;;;35.50;58.20;;;;;;5047488;28;20552;-74
2022/09/28 09:59:05;;;;;;;1.25;1.23;;;35.90;56.00;;;;;;5051321;28;20178;-73
2022/09/28 10:01:39;;;;;;;2.08;1.40;;;36.20;56.80;;;;;;5046522;28;20175;-75
2022/09/28 10:04:13;;;;;;;4.00;1.25;;;36.50;55.80;;;;;;5051723;28;20703;-75
2022/09/28 10:06:42;;;;;;;4.65;1.77;;;36.70;53.90;;;;;;5047223;28;20209;-75
2022/09/28 10:09:19;;;;;;;2.38;1.75;;;36.80;54.80;;;;;;5048313;28;20273;-75
2022/09/28 10:11:52;;;;;;;1.30;1.30;;;37.00;54.80;;;;;;5054794;28;20210;-75
2022/09/28 10:14:23;;;;;;;1.00;0.98;;;37.20;56.10;;;;;;5046484;28;20193;-75
2022/09/28 10:16:52;;;;;;;3.25;1.23;;;37.40;54.50;;;;;;5041056;28;20265;-75
2022/09/28 10:19:20;;;;;;;1.10;0.95;;;37.70;53.20;;;;;;5049601;28;20191;-75
2022/09/28 10:21:50;;;;;;;0.95;0.95;;;38.00;51.20;;;;;;5047018;28;20178;-75
2022/09/28 10:24:44;;;;;;;4.78;0.88;;;38.30;50.50;;;;;;5046157;28;20237;-75
2022/09/28 10:27:38;;;;;;;0.95;0.95;;;38.50;48.70;;;;;;5049466;28;20268;-75
2022/09/28 10:30:10;;;;;;;0.90;0.60;;;38.40;48.10;;;;;;5044011;28;20645;-75
2022/09/28 10:32:44;;;;;;;0.82;0.82;;;38.10;49.90;;;;;;5048594;28;20190;-75
2022/09/28 10:35:13;;;;;;;3.58;1.27;;;38.00;53.00;;;;;;5044341;28;20188;-74
2022/09/28 10:37:53;;;;;;;1.30;0.95;;;38.00;53.80;;;;;;5053167;28;20190;-74
2022/09/28 10:40:45;;;;;;;2.13;0.95;;;38.10;52.50;;;;;;5044386;28;20197;-75
2022/09/28 10:43:25;;;;;;;3.25;0.85;;;38.40;50.00;;;;;;5049739;28;20269;-75
2022/09/28 10:45:59;;;;;;;0.80;0.70;;;38.70;50.40;;;;;;5053466;28;20203;-75
2022/09/28 10:48:27;;;;;;;0.70;0.70;;;38.90;52.60;;;;;;5052559;28;20178;-75
2022/09/28 10:50:59;;;;;;;0.85;0.70;;;39.20;52.30;;;;;;5045067;28;20269;-76
2022/09/28 10:53:25;;;;;;;2.33;0.90;;;39.40;50.90;;;;;;5048109;28;20210;-76
2022/09/28 10:55:59;;;;;;;1.33;1.05;;;39.70;51.90;;;;;;5051508;28;20210;-75
2022/09/28 10:58:45;;;;;;;0.98;0.73;;;39.90;51.30;;;;;;5040902;28;20675;-75
2022/09/28 11:01:17;;;;;;;1.13;0.77;;;40.00;48.70;;;;;;5053035;28;20282;-75
2022/09/28 11:03:57;;;;;;;0.70;0.70;;;40.20;50.90;;;;;;5049565;28;20182;-75
2022/09/28 11:06:30;;;;;;;2.83;1.10;;;40.50;49.90;;;;;;5052224;28;20646;-77
2022/09/28 11:08:59;;;;;;;1.15;0.73;;;40.60;50.80;;;;;;5047527;28;20247;-75
2022/09/28 11:11:25;;;;;;;1.90;1.10;;;40.80;51.30;;;;;;5053610;28;20253;-77
2022/09/28 11:14:02;;;;;;;5.75;1.17;;;41.00;48.10;;;;;;5049115;28;20202;-75
2022/09/28 11:16:32;;;;;;;4.15;0.90;;;40.90;45.20;;;;;;5046437;28;20193;-75
2022/09/28 11:19:22;;;;;;;1.65;0.82;;;40.70;45.30;;;;;;5047173;28;20276;-79
2022/09/28 11:21:48;;;;;;;0.52;0.52;;;40.80;45.70;;;;;;5053400;28;20922;-76
2022/09/28 11:24:23;;;;;;;0.63;0.63;;;40.10;44.70;;;;;;5049024;28;20189;-76
2022/09/28 11:26:55;;;;;;;1.48;0.60;;;39.80;47.40;;;;;;5041742;28;20190;-76
2022/09/28 11:29:40;;;;;;;3.30;0.68;;;39.60;47.40;;;;;;5048515;28;20385;-76
2022/09/28 11:32:08;;;;;;;0.80;0.60;;;39.10;45.30;;;;;;5043040;28;20191;-76
2022/09/28 11:34:43;;;;;;;0.98;0.80;;;38.70;44.70;;;;;;5048861;28;20311;-74
2022/09/28 11:37:34;;;;;;;0.80;0.80;;;38.40;46.50;;;;;;5043088;28;20679;-75
2022/09/28 11:40:30;;;;;;;0.90;0.60;;;37.90;46.00;;;;;;5047417;28;20210;-74
2022/09/28 11:43:15;;;;;;;1.52;0.65;;;37.30;43.50;;;;;;5049710;28;20937;-76
2022/09/28 11:46:14;;;;;;;0.60;0.52;;;36.80;45.10;;;;;;5045127;28;20198;-75
2022/09/28 11:48:46;;;;;;;1.23;0.60;;;36.20;44.50;;;;;;5048340;28;20574;-75
2022/09/28 11:51:20;;;;;;;0.52;0.52;;;36.10;45.70;;;;;;5045304;28;20214;-75
2022/09/28 11:53:58;;;;;;;0.85;0.52;;;36.00;49.50;;;;;;5047230;28;20174;-75
2022/09/28 11:56:38;;;;;;;0.70;0.63;;;36.10;47.00;;;;;;5049702;28;20268;-75
2022/09/28 11:59:26;;;;;;;0.80;0.80;;;35.70;45.00;;;;;;5047442;28;20664;-75
2022/09/28 12:01:57;;;;;;;0.47;0.47;;;35.30;45.50;;;;;;5043164;28;20738;-75
2022/09/28 12:04:36;;;;;;;1.13;0.45;;;34.60;47.80;;;;;;5048786;28;20699;-75
2022/09/28 12:07:26;;;;;;;0.85;0.82;;;33.80;47.10;;;;;;5047376;28;20291;-75
2022/09/28 12:10:15;;;;;;;3.50;0.60;;;33.10;51.10;;;;;;5050382;28;20278;-75
2022/09/28 12:12:49;;;;;;;0.75;0.60;;;32.60;50.50;;;;;;5049334;28;20205;-75
2022/09/28 12:15:40;;;;;;;0.70;0.70;;;32.20;52.00;;;;;;5047836;28;20177;-76
2022/09/28 12:18:29;;;;;;;0.73;0.73;;;31.70;51.70;;;;;;5047478;28;20209;-75
2022/09/28 12:21:06;;;;;;;1.75;0.80;;;31.10;53.30;;;;;;5048977;28;20191;-75
2022/09/28 12:23:35;;;;;;;0.60;0.60;;;30.80;53.00;;;;;;5048119;28;20205;-76
2022/09/28 12:26:05;;;;;;;1.85;0.63;;;30.70;52.10;;;;;;5054515;28;20178;-75
2022/09/28 12:28:50;;;;;;;0.80;0.80;;;30.70;52.50;;;;;;5046738;28;21005;-75
2022/09/28 12:31:24;;;;;;;0.60;0.60;;;30.50;53.00;;;;;;5048794;28;20256;-75
2022/09/28 12:33:51;;;;;;;0.77;0.77;;;30.20;52.00;;;;;;5042830;28;20665;-75
2022/09/28 12:36:32;;;;;;;1.52;0.70;;;30.00;54.20;;;;;;5050385;28;20175;-75
2022/09/28 12:39:16;;;;;;;0.50;0.50;;;29.90;55.50;;;;;;5051735;28;20179;-75
2022/09/28 12:41:56;;;;;;;0.60;0.50;;;29.90;52.90;;;;;;5049998;28;20577;-75
2022/09/28 12:44:40;;;;;;;1.20;0.70;;;30.10;54.20;;;;;;5045081;28;20287;-75
2022/09/28 12:47:46;;;;;;;1.90;0.60;;;30.60;53.10;;;;;;5052377;28;20179;-75
2022/09/28 12:50:21;;;;;;;4.40;0.63;;;30.70;50.20;;;;;;5047838;28;20214;-75
2022/09/28 12:53:24;;;;;;;1.27;0.30;;;30.50;51.60;;;;;;5049729;28;20190;-75
2022/09/28 12:56:36;;;;;;;1.45;0.50;;;30.00;49.90;;;;;;5054738;28;20193;-76
2022/09/28 12:59:16;;;;;;;0.43;0.43;;;29.60;50.20;;;;;;5050499;28;20419;-75
2022/09/28 13:01:48;;;;;;;0.38;0.38;;;29.00;51.20;;;;;;5051934;28;20178;-76
2022/09/28 13:04:44;;;;;;;1.08;0.30;;;28.40;52.10;;;;;;5056293;28;20192;-76
2022/09/28 13:07:18;;;;;;;0.52;0.45;;;28.00;52.20;;;;;;5054182;28;20186;-76
2022/09/28 13:10:31;;;;;;;0.30;0.30;;;27.70;54.40;;;;;;5052810;28;20187;-76
2022/09/28 13:13:15;;;;;;;0.30;0.30;;;27.40;53.40;;;;;;5055723;28;20207;-75
2022/09/28 13:15:59;;;;;;;0.35;0.35;;;27.20;54.10;;;;;;5052074;28;20179;-75
2022/09/28 13:18:34;;;;;;;1.75;0.50;;;27.10;55.40;;;;;;5052427;28;20222;-75
2022/09/28 13:21:36;;;;;;;0.32;0.30;;;27.00;55.10;;;;;;5051783;28;20186;-76
2022/09/28 13:24:04;;;;;;;2.95;0.30;;;27.30;54.90;;;;;;5048880;28;20194;-76
2022/09/28 13:26:39;;;;;;;0.30;0.30;;;27.80;55.50;;;;;;5046973;28;20269;-76
2022/09/28 13:29:16;;;;;;;0.40;0.40;;;28.30;53.80;;;;;;5050893;28;20177;-75